Time;durP1;ratioP1;P1;durP2;ratioP2;P2;SDS_P1;SDS_P2;PMS_P1;PMS_P2;Temp;Humidity;BMP_temperature;BMP_pressure;BME280_temperature;BME280_humidity;BME280_pressure;Samples;Min_cycle;Max_cycle;Signal;HPM_P1;HPM_P2
2022/07/11 00:13:56;;;;;;;;;;;;;;;18.93;53.06;100481.28;1085910;54;20041;-79
2022/07/11 00:14:57;;;;;;;;;;;;;;;18.99;52.57;100491.34;1086332;54;19964;-79
2022/07/11 00:16:01;;;;;;;;;;;;;;;19.03;52.79;100487.25;1086494;54;19940;-79
2022/07/11 00:17:03;;;;;;;;;;;;;;;18.98;53.10;100481.56;1086375;54;19939;-80
2022/07/11 00:18:07;;;;;;;;;;;;;;;18.90;53.02;100487.03;1086297;54;20533;-79
2022/07/11 00:19:08;;;;;;;;;;;;;;;18.90;52.97;100474.34;1086211;54;19939;-78
2022/07/11 00:20:13;;;;;;;;;;;;;;;18.98;52.65;100474.25;1086410;54;19962;-80
2022/07/11 00:21:15;;;;;;;;;;;;;;;18.92;53.16;100476.84;1086259;54;20405;-80
2022/07/11 00:22:20;;;;;;;;;;;;;;;18.97;52.96;100477.16;1086101;54;20460;-81
2022/07/11 00:23:21;;;;;;;;;;;;;;;19.02;52.63;100474.72;1085991;54;19975;-81
2022/07/11 00:24:26;;;;;;;;;;;;;;;19.07;52.78;100479.56;1086047;54;20038;-78
2022/07/11 00:25:27;;;;;;;;;;;;;;;19.06;52.88;100478.75;1086080;54;19966;-78
2022/07/11 00:26:31;;;;;;;;;;;;;;;18.98;52.99;100471.56;1086317;54;20444;-77
2022/07/11 00:27:35;;;;;;;;;;;;;;;19.04;52.86;100482.66;1086268;54;19974;-79
2022/07/11 00:28:36;;;;;;;;;;;;;;;19.00;52.86;100471.34;1086069;54;19961;-79
2022/07/11 00:29:43;;;;;;;;;;;;;;;18.96;53.31;100476.31;1086075;54;19974;-78
2022/07/11 00:30:45;;;;;;;;;;;;;;;19.01;53.02;100476.59;1086437;54;20009;-78
2022/07/11 00:31:51;;;;;;;;;;;;;;;19.02;52.88;100477.44;1086327;54;19994;-78
2022/07/11 00:32:52;;;;;;;;;;;;;;;18.98;53.26;100476.97;1086561;54;19962;-79
2022/07/11 00:33:57;;;;;;;;;;;;;;;18.85;53.47;100477.63;1087280;54;19923;-79
2022/07/11 00:35:01;;;;;;;;;;;;;;;18.87;53.49;100477.41;1086925;54;19939;-77
2022/07/11 00:36:03;;;;;;;;;;;;;;;18.86;53.33;100473.88;1086955;54;19963;-78
2022/07/11 00:37:07;;;;;;;;;;;;;;;18.92;53.40;100474.13;1087299;54;19939;-81
2022/07/11 00:38:14;;;;;;;;;;;;;;;18.97;53.37;100478.00;1087288;54;19954;-81
2022/07/11 00:39:18;;;;;;;;;;;;;;;18.99;53.17;100475.09;1087141;54;19981;-83
2022/07/11 00:40:20;;;;;;;;;;;;;;;18.99;53.25;100475.09;1088727;31;20369;-82
2022/07/11 00:41:24;;;;;;;;;;;;;;;18.98;53.45;100470.72;1088150;54;19927;-83
2022/07/11 00:42:26;;;;;;;;;;;;;;;18.95;53.38;100466.50;1088275;54;19998;-81
2022/07/11 00:43:33;;;;;;;;;;;;;;;18.98;53.47;100473.44;1088511;54;19919;-82
2022/07/11 00:44:38;;;;;;;;;;;;;;;19.00;53.20;100468.63;1088263;54;19934;-83
2022/07/11 00:45:41;;;;;;;;;;;;;;;18.98;53.27;100473.44;1088392;54;19931;-83
2022/07/11 00:46:56;;;;;;;;;;;;;;;18.97;53.37;100467.16;1088176;54;19938;-80
2022/07/11 00:47:57;;;;;;;;;;;;;;;18.97;53.19;100461.75;1089096;39;20341;-81
2022/07/11 00:49:13;;;;;;;;;;;;;;;18.99;53.17;100467.81;1087674;54;19939;-82
2022/07/11 00:50:15;;;;;;;;;;;;;;;18.93;53.35;100463.16;1088212;54;19931;-79
2022/07/11 00:51:20;;;;;;;;;;;;;;;18.94;53.27;100464.00;1088084;54;19957;-80
2022/07/11 00:52:22;;;;;;;;;;;;;;;18.96;53.50;100460.06;1088397;54;19994;-80
2022/07/11 00:53:30;;;;;;;;;;;;;;;19.00;53.03;100463.22;1088316;54;19942;-81
2022/07/11 00:54:34;;;;;;;;;;;;;;;18.95;53.30;100460.25;1088046;54;19939;-80
2022/07/11 00:55:37;;;;;;;;;;;;;;;18.86;54.28;100460.34;1088183;54;19946;-81
2022/07/11 00:56:41;;;;;;;;;;;;;;;18.89;53.76;100455.59;1088215;54;19938;-80
2022/07/11 00:57:43;;;;;;;;;;;;;;;18.86;54.12;100454.94;1088166;54;19969;-82
2022/07/11 00:58:47;;;;;;;;;;;;;;;18.82;54.18;100452.78;1088119;54;19923;-81
2022/07/11 00:59:48;;;;;;;;;;;;;;;18.85;53.56;100452.38;1087974;54;20472;-80
2022/07/11 01:00:55;;;;;;;;;;;;;;;18.80;54.00;100454.84;1088282;54;19939;-79
2022/07/11 01:01:57;;;;;;;;;;;;;;;18.83;53.81;100459.88;1088402;54;20544;-80
2022/07/11 01:03:01;;;;;;;;;;;;;;;18.81;53.81;100457.34;1088243;54;19963;-80
2022/07/11 01:04:02;;;;;;;;;;;;;;;18.76;54.19;100451.66;1088185;54;19934;-82
2022/07/11 01:05:12;;;;;;;;;;;;;;;18.82;54.08;100459.03;1088241;54;19999;-81
2022/07/11 01:06:13;;;;;;;;;;;;;;;18.80;54.20;100458.38;1088211;54;19959;-80
2022/07/11 01:07:24;;;;;;;;;;;;;;;18.80;54.17;100457.53;1088134;54;19954;-79
2022/07/11 01:08:31;;;;;;;;;;;;;;;18.76;54.45;100456.22;1090178;39;20334;-81
2022/07/11 01:09:35;;;;;;;;;;;;;;;18.70;54.28;100455.13;1088310;54;20035;-79
2022/07/11 01:10:42;;;;;;;;;;;;;;;18.67;54.92;100461.75;1088183;54;19927;-80
2022/07/11 01:11:47;;;;;;;;;;;;;;;18.70;54.64;100458.69;1090113;39;20352;-79
2022/07/11 01:12:49;;;;;;;;;;;;;;;18.51;55.58;100451.97;1088155;54;20433;-80
2022/07/11 01:13:53;;;;;;;;;;;;;;;18.46;55.32;100451.69;1088594;54;19942;-81
2022/07/11 01:16:30;;;;;;;;;;;;;;;18.45;55.27;100458.13;1088808;54;19938;-83
2022/07/11 01:17:32;;;;;;;;;;;;;;;18.47;55.48;100453.38;1088719;54;19922;-82
2022/07/11 01:18:53;;;;;;;;;;;;;;;18.53;55.27;100449.06;1088807;54;19939;-83
2022/07/11 01:19:54;;;;;;;;;;;;;;;18.46;55.29;100451.69;1093074;46;19939;-83
2022/07/11 01:21:21;;;;;;;;;;;;;;;18.52;55.35;100450.94;1088850;54;19923;-84
2022/07/11 01:22:24;;;;;;;;;;;;;;;18.53;55.42;100449.91;1091082;46;19926;-83
2022/07/11 01:23:37;;;;;;;;;;;;;;;18.60;55.04;100449.19;1107243;46;19923;-82
2022/07/11 01:24:38;;;;;;;;;;;;;;;18.66;54.75;100443.00;1088220;54;19950;-82
2022/07/11 01:25:44;;;;;;;;;;;;;;;18.64;55.08;100445.03;1088164;54;19995;-81
2022/07/11 01:26:46;;;;;;;;;;;;;;;18.51;55.65;100446.56;1088182;54;20481;-80
2022/07/11 01:28:01;;;;;;;;;;;;;;;18.55;55.29;100441.63;1088101;54;19939;-80
2022/07/11 01:29:06;;;;;;;;;;;;;;;18.54;55.15;100440.75;1088261;54;19930;-80
2022/07/11 01:30:10;;;;;;;;;;;;;;;18.60;54.93;100439.16;1088314;54;19934;-81
2022/07/11 02:15:58;;;;;;;;;;;;;;;18.31;57.32;100454.38;1086142;54;20661;-80
2022/07/11 02:16:59;;;;;;;;;;;;;;;18.30;56.96;100454.59;1087721;39;20373;-82
2022/07/11 02:18:01;;;;;;;;;;;;;;;18.29;57.08;100453.72;1087981;54;20043;-81
2022/07/11 02:19:06;;;;;;;;;;;;;;;18.33;57.10;100449.63;1088108;54;19959;-81
2022/07/11 02:20:21;;;;;;;;;;;;;;;18.35;57.08;100449.44;1088225;54;19939;-79
2022/07/11 02:21:25;;;;;;;;;;;;;;;18.34;57.10;100447.75;1086915;54;19963;-81
2022/07/11 02:22:28;;;;;;;;;;;;;;;18.35;56.83;100446.72;1086402;54;20034;-80
2022/07/11 02:23:32;;;;;;;;;;;;;;;18.39;56.83;100445.34;1087074;54;20002;-81
2022/07/11 02:24:35;;;;;;;;;;;;;;;18.43;56.45;100441.22;1087944;54;19974;-80
2022/07/11 02:25:40;;;;;;;;;;;;;;;18.44;56.85;100451.03;1088409;54;19926;-81
2022/07/11 02:26:42;;;;;;;;;;;;;;;18.44;56.49;100445.59;1088417;54;19965;-80
2022/07/11 02:27:46;;;;;;;;;;;;;;;18.46;56.82;100442.75;1088293;54;19946;-82
2022/07/11 02:29:02;;;;;;;;;;;;;;;18.40;56.94;100442.44;1088398;54;19939;-81
2022/07/11 02:30:03;;;;;;;;;;;;;;;18.17;58.11;100449.81;1087450;47;19938;-79
2022/07/11 02:31:10;;;;;;;;;;;;;;;18.08;58.19;100452.59;1086974;54;19946;-80
2022/07/11 02:32:12;;;;;;;;;;;;;;;18.06;58.60;100446.53;1087528;54;19939;-81
2022/07/11 02:33:22;;;;;;;;;;;;;;;17.99;58.60;100444.75;1088404;54;19982;-81
2022/07/11 02:34:24;;;;;;;;;;;;;;;17.96;58.67;100445.97;1088220;54;19926;-79
2022/07/11 02:35:35;;;;;;;;;;;;;;;18.06;58.38;100449.25;1087937;54;19962;-79
2022/07/11 02:36:36;;;;;;;;;;;;;;;18.04;58.53;100453.16;1087588;54;19935;-80
2022/07/11 02:37:40;;;;;;;;;;;;;;;18.04;58.42;100451.28;1087021;54;19958;-80
2022/07/11 02:38:47;;;;;;;;;;;;;;;18.10;58.23;100449.72;1087816;54;19943;-82
2022/07/11 02:39:51;;;;;;;;;;;;;;;17.96;59.06;100459.47;1087848;54;19927;-83
2022/07/11 02:40:59;;;;;;;;;;;;;;;17.88;59.23;100446.84;1087966;54;19959;-81
2022/07/11 02:42:05;;;;;;;;;;;;;;;17.80;59.34;100454.19;1088379;47;20006;-81
2022/07/11 02:43:07;;;;;;;;;;;;;;;17.91;59.05;100451.03;1088219;54;19968;-82
2022/07/11 02:44:11;;;;;;;;;;;;;;;17.97;59.01;100449.50;1088164;54;19950;-80
2022/07/11 02:45:19;;;;;;;;;;;;;;;18.01;58.75;100453.53;1088061;54;19951;-79
2022/07/11 02:46:25;;;;;;;;;;;;;;;17.95;58.79;100454.22;1088099;54;19946;-81
2022/07/11 02:47:27;;;;;;;;;;;;;;;18.02;58.77;100455.19;1088125;54;19943;-79
2022/07/11 02:48:31;;;;;;;;;;;;;;;18.06;58.30;100457.34;1087851;54;19951;-80
2022/07/11 02:49:32;;;;;;;;;;;;;;;18.08;58.49;100451.75;1088002;47;19954;-79
2022/07/11 02:50:37;;;;;;;;;;;;;;;18.11;58.33;100451.38;1087689;54;19951;-78
2022/07/11 02:51:39;;;;;;;;;;;;;;;18.16;58.17;100443.53;1087289;54;19947;-79
2022/07/11 02:52:43;;;;;;;;;;;;;;;18.16;58.18;100448.97;1087406;54;19951;-82
2022/07/11 02:53:44;;;;;;;;;;;;;;;18.14;58.49;100450.19;1088279;47;19950;-82
2022/07/11 02:54:48;;;;;;;;;;;;;;;18.14;58.05;100451.00;1087683;54;19943;-81
2022/07/11 02:55:50;;;;;;;;;;;;;;;18.01;59.03;100454.34;1087113;54;19939;-78
2022/07/11 02:56:53;;;;;;;;;;;;;;;17.99;58.75;100452.84;1086833;54;20397;-80
2022/07/11 02:58:01;;;;;;;;;;;;;;;17.89;59.24;100453.91;1086043;54;19950;-78
2022/07/11 02:59:05;;;;;;;;;;;;;;;17.92;59.28;100453.56;1086131;54;20002;-79
2022/07/11 03:00:10;;;;;;;;;;;;;;;17.84;59.52;100455.50;1086137;46;19966;-78
2022/07/11 03:01:11;;;;;;;;;;;;;;;17.85;59.59;100449.94;1086135;54;19947;-79
2022/07/11 03:02:18;;;;;;;;;;;;;;;17.88;59.31;100446.84;1087186;47;19946;-78
2022/07/11 03:03:20;;;;;;;;;;;;;;;17.90;59.26;100449.38;1086240;54;20002;-77
2022/07/11 03:04:25;;;;;;;;;;;;;;;17.87;59.48;100447.84;1086645;54;19955;-78
2022/07/11 03:05:29;;;;;;;;;;;;;;;17.95;59.41;100444.25;1085977;54;19950;-78
2022/07/11 03:06:30;;;;;;;;;;;;;;;17.97;59.34;100452.19;1085720;54;19946;-80
2022/07/11 03:07:35;;;;;;;;;;;;;;;18.02;59.18;100455.19;1085427;54;19951;-79
2022/07/11 03:08:36;;;;;;;;;;;;;;;17.95;59.18;100452.34;1085581;47;19950;-79
2022/07/11 03:09:40;;;;;;;;;;;;;;;18.01;59.02;100458.94;1085457;54;19971;-79
2022/07/11 03:10:41;;;;;;;;;;;;;;;18.05;58.70;100447.56;1086726;54;19950;-79
2022/07/11 03:11:46;;;;;;;;;;;;;;;18.12;58.52;100444.97;1086672;54;19949;-80
2022/07/11 03:12:48;;;;;;;;;;;;;;;18.15;58.42;100449.16;1085552;54;19939;-79
2022/07/11 03:13:52;;;;;;;;;;;;;;;18.16;58.51;100448.97;1086290;54;20041;-78
2022/07/11 03:14:53;;;;;;;;;;;;;;;18.15;58.81;100447.28;1087067;39;20341;-80
2022/07/11 03:15:57;;;;;;;;;;;;;;;18.20;58.38;100444.88;1086672;54;19951;-79
2022/07/11 03:16:58;;;;;;;;;;;;;;;18.23;58.19;100441.78;1086637;54;19963;-79
2022/07/11 03:18:05;;;;;;;;;;;;;;;18.20;58.55;100442.16;1086657;54;19947;-78
2022/07/11 03:19:16;;;;;;;;;;;;;;;18.23;58.47;100444.47;1086506;54;19951;-79
2022/07/11 03:20:20;;;;;;;;;;;;;;;18.24;58.22;100443.47;1086243;54;19985;-78
2022/07/11 03:21:21;;;;;;;;;;;;;;;18.27;58.20;100447.69;1086396;54;19951;-78
2022/07/11 03:22:25;;;;;;;;;;;;;;;18.26;57.98;100450.56;1085639;54;19962;-79
2022/07/11 03:23:27;;;;;;;;;;;;;;;18.25;58.11;100447.03;1086834;54;19977;-79
2022/07/11 03:24:30;;;;;;;;;;;;;;;18.27;58.28;100444.13;1086908;54;19935;-78
2022/07/11 03:25:40;;;;;;;;;;;;;;;18.27;58.32;100441.41;1087150;39;20412;-79
2022/07/11 03:26:41;;;;;;;;;;;;;;;18.28;58.25;100446.63;1086692;54;19941;-79
2022/07/11 03:27:45;;;;;;;;;;;;;;;18.30;58.10;100441.06;1087020;54;19947;-78
2022/07/11 03:28:47;;;;;;;;;;;;;;;18.13;58.80;100437.66;1087270;54;19970;-80
2022/07/11 03:29:51;;;;;;;;;;;;;;;18.09;58.88;100440.72;1087198;54;19939;-78
2022/07/11 03:30:52;;;;;;;;;;;;;;;17.98;59.55;100445.75;1086934;54;19938;-78
2022/07/11 03:31:58;;;;;;;;;;;;;;;17.88;59.98;100441.41;1087204;54;19946;-79
2022/07/11 03:33:02;;;;;;;;;;;;;;;17.82;60.42;100446.72;1086944;46;19935;-78
2022/07/11 03:34:06;;;;;;;;;;;;;;;17.77;60.51;100447.25;1085811;54;19947;-78
2022/07/11 03:36:26;;;;;;;;;;;;;;;17.76;60.40;100448.28;1085078;54;19970;-77
2022/07/11 03:37:28;;;;;;;;;;;;;;;17.80;60.23;100440.69;1085601;39;20341;-78
2022/07/11 03:38:32;;;;;;;;;;;;;;;17.78;60.45;100446.25;1084992;54;20003;-77
2022/07/11 03:39:33;;;;;;;;;;;;;;;17.77;60.57;100449.97;1086673;39;20002;-78
2022/07/11 03:40:50;;;;;;;;;;;;;;;17.75;60.73;100446.63;1086121;54;19939;-79
2022/07/11 03:41:53;;;;;;;;;;;;;;;17.74;60.90;100453.06;1085532;54;19938;-78
2022/07/11 03:43:34;;;;;;;;;;;;;;;17.71;60.87;100448.00;1085327;54;19968;-78
2022/07/11 03:46:44;;;;;;;;;;;;;;;17.62;61.28;100444.50;1084939;54;19978;-78
2022/07/11 03:49:22;;;;;;;;;;;;;;;17.57;61.60;100442.34;1087910;54;19939;-78
2022/07/11 03:50:27;;;;;;;;;;;;;;;17.54;61.78;100456.25;1087944;54;19927;-78
2022/07/11 03:52:03;;;;;;;;;;;;;;;;;;;;;
2022/07/11 03:53:18;;;;;;;;;;;;;;;17.49;61.93;100447.00;1088004;54;19939;-78
2022/07/11 03:54:21;;;;;;;;;;;;;;;17.46;61.79;100443.63;1086683;54;19957;-77
2022/07/11 03:57:25;;;;;;;;;;;;;;;17.49;61.97;100447.81;1088048;54;19935;-79
2022/07/11 03:58:29;;;;;;;;;;;;;;;17.50;61.98;100438.69;1089518;46;19938;-77
2022/07/11 03:59:31;;;;;;;;;;;;;;;17.55;61.54;100439.00;1089161;46;19999;-77
2022/07/11 04:00:41;;;;;;;;;;;;;;;17.60;61.26;100444.69;1088116;46;19939;-76
2022/07/11 04:01:52;;;;;;;;;;;;;;;17.60;61.24;100433.88;1088121;54;19973;-80
2022/07/11 04:02:53;;;;;;;;;;;;;;;17.54;61.74;100439.19;1088414;54;19966;-76
2022/07/11 04:03:57;;;;;;;;;;;;;;;17.53;61.65;100440.19;1088443;54;19943;-76
2022/07/11 04:05:03;;;;;;;;;;;;;;;17.60;61.71;100441.19;1088443;54;19954;-77
2022/07/11 04:06:07;;;;;;;;;;;;;;;17.60;61.37;100442.00;1088488;54;19942;-77
2022/07/11 04:07:08;;;;;;;;;;;;;;;17.50;61.81;100438.69;1087428;54;20010;-76
2022/07/11 04:08:12;;;;;;;;;;;;;;;17.49;61.95;100453.22;1086301;54;19989;-78
2022/07/11 04:09:13;;;;;;;;;;;;;;;17.54;61.59;100445.44;1087266;39;20386;-78
2022/07/11 04:10:18;;;;;;;;;;;;;;;17.61;61.27;100442.84;1086757;47;19953;-78
2022/07/11 04:11:19;;;;;;;;;;;;;;;17.69;60.98;100442.78;1086435;54;19946;-78
2022/07/11 04:12:23;;;;;;;;;;;;;;;17.66;61.51;100443.16;1087755;46;19999;-77
2022/07/11 04:13:25;;;;;;;;;;;;;;;17.71;61.05;100450.72;1087196;54;19966;-78
2022/07/11 04:14:29;;;;;;;;;;;;;;;17.72;61.07;100441.56;1086827;54;19939;-79
2022/07/11 04:15:30;;;;;;;;;;;;;;;17.68;61.65;100445.66;1086071;54;19950;-78
2022/07/11 04:16:34;;;;;;;;;;;;;;;17.60;61.97;100438.47;1085595;54;19953;-78
2022/07/11 04:17:35;;;;;;;;;;;;;;;17.56;61.80;100443.41;1086305;54;20566;-79
2022/07/11 04:18:40;;;;;;;;;;;;;;;17.58;62.13;100437.81;1086258;54;19951;-79
2022/07/11 04:19:42;;;;;;;;;;;;;;;17.53;62.06;100438.34;1088349;39;20438;-79
2022/07/11 04:20:49;;;;;;;;;;;;;;;17.60;61.59;100439.28;1086526;54;20038;-81
2022/07/11 04:21:50;;;;;;;;;;;;;;;17.62;61.81;100447.22;1086544;54;19958;-79
2022/07/11 04:22:54;;;;;;;;;;;;;;;17.60;61.81;100436.59;1086611;54;20222;-78
2022/07/11 04:23:55;;;;;;;;;;;;;;;17.62;61.99;100444.50;1086289;54;19946;-78
2022/07/11 04:24:59;;;;;;;;;;;;;;;17.64;61.85;100450.59;1086303;54;19941;-78
2022/07/11 04:26:00;;;;;;;;;;;;;;;17.57;62.10;100455.03;1086838;54;19946;-79
2022/07/11 04:27:06;;;;;;;;;;;;;;;17.52;62.21;100449.34;1087901;39;20356;-78
2022/07/11 04:28:07;;;;;;;;;;;;;;;17.51;62.37;100451.19;1086353;54;19954;-78
2022/07/11 04:29:11;;;;;;;;;;;;;;;17.52;62.52;100447.47;1086379;54;19946;-79
2022/07/11 04:30:12;;;;;;;;;;;;;;;17.59;62.48;100448.44;1086706;54;19942;-79
2022/07/11 04:31:16;;;;;;;;;;;;;;;17.59;62.43;100453.84;1086517;46;19982;-80
2022/07/11 04:32:17;;;;;;;;;;;;;;;17.51;62.79;100444.97;1086914;39;20687;-79
2022/07/11 04:33:21;;;;;;;;;;;;;;;17.51;62.77;100451.19;1086441;54;20013;-79
2022/07/11 04:34:22;;;;;;;;;;;;;;;17.48;63.06;100459.66;1086411;54;19946;-79
2022/07/11 04:35:27;;;;;;;;;;;;;;;17.48;62.83;100456.94;1086339;54;19946;-79
2022/07/11 04:36:31;;;;;;;;;;;;;;;17.48;62.83;100458.81;1086159;54;19946;-79
2022/07/11 04:37:34;;;;;;;;;;;;;;;17.50;62.76;100459.50;1086020;54;19947;-80
2022/07/11 04:38:36;;;;;;;;;;;;;;;17.59;62.39;100459.25;1086081;54;19946;-79
2022/07/11 04:39:39;;;;;;;;;;;;;;;17.73;62.18;100454.91;1085638;54;20071;-79
2022/07/11 04:40:41;;;;;;;;;;;;;;;17.83;61.66;100453.81;1085927;54;19958;-80
2022/07/11 04:41:45;;;;;;;;;;;;;;;17.91;61.64;100456.44;1085874;54;19951;-79
2022/07/11 04:42:52;;;;;;;;;;;;;;;17.92;61.53;100453.56;1086005;46;19954;-79
2022/07/11 04:43:56;;;;;;;;;;;;;;;17.83;61.76;100459.22;1085546;54;19946;-78
2022/07/11 04:44:57;;;;;;;;;;;;;;;17.91;61.52;100457.28;1085927;54;19950;-78
2022/07/11 04:46:04;;;;;;;;;;;;;;;17.98;61.23;100454.72;1085616;54;19950;-79
2022/07/11 04:47:06;;;;;;;;;;;;;;;18.03;60.67;100455.00;1085817;54;20010;-79
2022/07/11 04:48:21;;;;;;;;;;;;;;;17.97;61.26;100457.59;1085903;54;19939;-78
2022/07/11 04:49:22;;;;;;;;;;;;;;;17.98;61.04;100460.16;1088375;54;19998;-80
2022/07/11 04:50:26;;;;;;;;;;;;;;;18.04;61.12;100456.69;1088399;54;19951;-79
2022/07/11 04:51:27;;;;;;;;;;;;;;;18.07;60.94;100450.06;1090651;46;19938;-80
2022/07/11 04:52:38;;;;;;;;;;;;;;;18.10;60.54;100449.72;1088226;54;19934;-79
2022/07/11 04:53:39;;;;;;;;;;;;;;;18.01;60.90;100456.22;1090424;39;20385;-78
2022/07/11 04:54:43;;;;;;;;;;;;;;;17.95;61.17;100452.34;1086014;54;19946;-79
2022/07/11 04:55:44;;;;;;;;;;;;;;;18.05;60.60;100457.53;1085822;54;19947;-78
2022/07/11 04:56:48;;;;;;;;;;;;;;;18.12;60.69;100458.50;1086406;39;20317;-78
2022/07/11 04:57:49;;;;;;;;;;;;;;;18.16;60.40;100453.53;1086186;54;19973;-79
2022/07/11 04:58:53;;;;;;;;;;;;;;;18.14;60.42;100461.00;1086556;54;19947;-80
2022/07/11 04:59:54;;;;;;;;;;;;;;;18.17;60.53;100461.47;1088242;39;20365;-78
2022/07/11 05:00:59;;;;;;;;;;;;;;;18.13;60.82;100460.16;1086963;46;19957;-80
2022/07/11 05:02:00;;;;;;;;;;;;;;;18.18;60.70;100462.31;1086509;54;19950;-80
2022/07/11 05:03:04;;;;;;;;;;;;;;;18.18;60.65;100463.16;1087905;39;20401;-79
2022/07/11 05:04:05;;;;;;;;;;;;;;;18.14;60.65;100456.41;1086229;39;20439;-79
2022/07/11 05:05:11;;;;;;;;;;;;;;;18.21;60.12;100454.66;1085805;54;20037;-79
2022/07/11 05:06:12;;;;;;;;;;;;;;;18.27;60.29;100458.50;1085699;54;19950;-79
2022/07/11 05:07:16;;;;;;;;;;;;;;;18.32;59.90;100463.34;1085662;54;19954;-79
2022/07/11 05:08:23;;;;;;;;;;;;;;;18.30;60.51;100465.41;1085862;54;20524;-79
2022/07/11 05:09:24;;;;;;;;;;;;;;;18.27;60.44;100460.34;1085906;54;19981;-80
2022/07/11 05:10:28;;;;;;;;;;;;;;;18.21;60.65;100457.38;1087486;39;20344;-78
2022/07/11 05:11:29;;;;;;;;;;;;;;;18.16;61.00;100467.91;1085798;54;19977;-79
2022/07/11 05:12:33;;;;;;;;;;;;;;;18.18;60.60;100465.03;1086036;54;19970;-80
2022/07/11 05:13:34;;;;;;;;;;;;;;;18.22;60.44;100464.47;1085850;54;19950;-79
2022/07/11 05:14:38;;;;;;;;;;;;;;;18.24;60.26;100464.28;1086036;54;19950;-79
2022/07/11 05:15:39;;;;;;;;;;;;;;;18.27;60.47;100461.22;1086010;54;19946;-79
2022/07/11 05:16:43;;;;;;;;;;;;;;;18.32;60.36;100463.34;1085701;54;20014;-80
2022/07/11 05:17:46;;;;;;;;;;;;;;;18.36;60.31;100461.94;1086459;54;19947;-78
2022/07/11 05:18:48;;;;;;;;;;;;;;;18.38;60.03;100468.03;1085989;54;19970;-79
2022/07/11 05:19:51;;;;;;;;;;;;;;;18.38;60.07;100473.44;1086412;39;20357;-77
2022/07/11 05:20:52;;;;;;;;;;;;;;;18.35;60.55;100458.41;1085961;54;20203;-79
2022/07/11 05:21:56;;;;;;;;;;;;;;;18.31;60.59;100473.31;1086169;54;19938;-79
2022/07/11 05:22:57;;;;;;;;;;;;;;;18.38;60.38;100468.84;1085892;54;19966;-79
2022/07/11 05:24:04;;;;;;;;;;;;;;;18.43;60.27;100465.59;1085820;54;19951;-80
2022/07/11 05:25:05;;;;;;;;;;;;;;;18.40;60.38;100471.38;1086083;54;19951;-79
2022/07/11 05:26:10;;;;;;;;;;;;;;;18.33;60.12;100460.47;1085586;54;19948;-79
2022/07/11 05:27:11;;;;;;;;;;;;;;;18.31;60.11;100457.09;1085762;54;19953;-79
2022/07/11 05:28:16;;;;;;;;;;;;;;;18.34;60.31;100464.00;1085779;54;19970;-79
2022/07/11 05:29:17;;;;;;;;;;;;;;;18.33;60.38;100465.88;1086202;54;19950;-79
2022/07/11 05:30:21;;;;;;;;;;;;;;;18.27;60.75;100468.47;1086190;54;19995;-79
2022/07/11 05:31:22;;;;;;;;;;;;;;;18.16;60.89;100469.78;1086188;54;19946;-79
2022/07/11 05:32:26;;;;;;;;;;;;;;;18.29;60.80;100469.13;1086468;46;19977;-78
2022/07/11 05:33:28;;;;;;;;;;;;;;;18.34;60.48;100462.16;1085738;54;19954;-78
2022/07/11 05:34:32;;;;;;;;;;;;;;;18.37;60.24;100469.03;1085714;54;20042;-79
2022/07/11 05:35:33;;;;;;;;;;;;;;;18.35;60.33;100480.06;1086008;54;19973;-78
2022/07/11 05:36:37;;;;;;;;;;;;;;;18.25;60.57;100474.09;1085852;54;19953;-80
2022/07/11 05:37:41;;;;;;;;;;;;;;;18.20;60.92;100473.78;1085938;54;19945;-79
2022/07/11 05:38:42;;;;;;;;;;;;;;;18.23;60.84;100474.25;1085779;54;19946;-79
2022/07/11 05:39:50;;;;;;;;;;;;;;;18.34;60.55;100472.97;1085939;54;19951;-79
2022/07/11 05:40:51;;;;;;;;;;;;;;;18.43;60.48;100468.28;1086029;54;19950;-79
2022/07/11 05:41:55;;;;;;;;;;;;;;;18.45;60.22;100476.25;1086385;39;20330;-79
2022/07/11 05:42:56;;;;;;;;;;;;;;;18.34;60.57;100474.81;1089341;39;20390;-79
2022/07/11 05:44:00;;;;;;;;;;;;;;;18.29;60.83;100471.84;1085837;54;19951;-80
2022/07/11 05:45:01;;;;;;;;;;;;;;;18.20;60.97;100469.22;1085387;54;20006;-79
2022/07/11 05:46:06;;;;;;;;;;;;;;;18.24;61.02;100466.97;1085749;54;20448;-79
2022/07/11 05:47:07;;;;;;;;;;;;;;;18.35;60.42;100463.81;1085517;54;19954;-80
2022/07/11 05:48:18;;;;;;;;;;;;;;;18.28;60.76;100467.44;1087171;46;20421;-80
2022/07/11 05:49:19;;;;;;;;;;;;;;;18.23;60.73;100468.84;1086562;54;19946;-78
2022/07/11 05:50:23;;;;;;;;;;;;;;;18.22;60.67;100469.03;1086261;54;19939;-79
2022/07/11 05:51:24;;;;;;;;;;;;;;;18.35;60.73;100468.38;1086004;54;19958;-79
2022/07/11 05:52:29;;;;;;;;;;;;;;;18.42;60.13;100476.59;1090241;39;20155;-78
2022/07/11 05:53:30;;;;;;;;;;;;;;;18.40;60.22;100471.38;1086293;54;19947;-80
2022/07/11 05:54:34;;;;;;;;;;;;;;;18.45;59.95;100466.25;1086796;54;19939;-79
2022/07/11 05:55:37;;;;;;;;;;;;;;;18.40;60.49;100474.09;1086377;54;19953;-79
2022/07/11 05:56:41;;;;;;;;;;;;;;;18.32;60.81;100471.47;1086629;54;19947;-78
2022/07/11 05:57:42;;;;;;;;;;;;;;;18.30;60.82;100468.94;1086224;54;19954;-78
2022/07/11 05:58:46;;;;;;;;;;;;;;;18.33;60.87;100474.00;1086412;54;19950;-78
2022/07/11 05:59:48;;;;;;;;;;;;;;;18.44;60.53;100471.84;1087066;54;19950;-80
2022/07/11 06:00:51;;;;;;;;;;;;;;;18.53;60.10;100468.84;1086929;54;20531;-79
2022/07/11 06:01:53;;;;;;;;;;;;;;;18.50;60.33;100477.38;1087178;54;19950;-79
2022/07/11 06:04:37;;;;;;;;;;;;;;;18.54;60.31;100472.41;1087018;54;19950;-79
2022/07/11 06:05:38;;;;;;;;;;;;;;;18.59;59.91;100469.16;1087964;54;19951;-79
2022/07/11 06:06:42;;;;;;;;;;;;;;;18.38;60.61;100471.56;1087991;54;19934;-79
2022/07/11 06:09:01;;;;;;;;;;;;;;;18.34;60.48;100469.41;1086962;54;19942;-80
2022/07/11 06:10:05;;;;;;;;;;;;;;;18.27;61.14;100471.19;1085539;54;19947;-79
2022/07/11 06:11:10;;;;;;;;;;;;;;;18.39;60.61;100469.69;1085233;54;19950;-79
2022/07/11 06:12:14;;;;;;;;;;;;;;;18.38;60.45;100468.84;1085925;54;19969;-79
2022/07/11 06:13:15;;;;;;;;;;;;;;;18.35;60.74;100471.09;1086155;54;19947;-79
2022/07/11 06:14:19;;;;;;;;;;;;;;;18.42;60.29;100469.31;1086152;39;20392;-80
2022/07/11 06:15:20;;;;;;;;;;;;;;;18.47;60.15;100472.31;1085769;54;19939;-79
2022/07/11 06:16:24;;;;;;;;;;;;;;;18.53;60.05;100466.16;1085812;54;19947;-79
2022/07/11 06:17:26;;;;;;;;;;;;;;;18.50;60.11;100466.53;1085530;39;20348;-79
2022/07/11 06:18:30;;;;;;;;;;;;;;;18.53;60.20;100458.03;1085777;54;19947;-78
2022/07/11 06:19:31;;;;;;;;;;;;;;;18.54;60.29;100457.00;1085972;54;19946;-80
2022/07/11 06:20:35;;;;;;;;;;;;;;;18.61;60.22;100465.22;1085796;54;19946;-79
2022/07/11 06:21:39;;;;;;;;;;;;;;;18.55;60.02;100464.09;1085738;54;20428;-79
2022/07/11 06:22:40;;;;;;;;;;;;;;;18.63;59.87;100470.44;1085791;54;19951;-80
2022/07/11 06:23:44;;;;;;;;;;;;;;;18.71;59.52;100462.22;1085922;54;19946;-80
2022/07/11 06:24:46;;;;;;;;;;;;;;;18.67;59.89;100467.16;1085788;54;20449;-80
2022/07/11 06:25:50;;;;;;;;;;;;;;;18.67;59.95;100466.34;1087002;39;20444;-80
2022/07/11 06:27:00;;;;;;;;;;;;;;;18.66;59.81;100461.94;1086123;54;20468;-79
2022/07/11 06:28:01;;;;;;;;;;;;;;;18.80;59.54;100463.78;1086698;39;20413;-80
2022/07/11 06:29:05;;;;;;;;;;;;;;;18.90;59.03;100466.22;1085528;54;20007;-80
2022/07/11 06:30:07;;;;;;;;;;;;;;;18.76;59.36;100465.22;1085641;54;19947;-80
2022/07/11 06:31:10;;;;;;;;;;;;;;;18.91;59.01;100467.03;1085461;54;19950;-80
2022/07/11 06:32:11;;;;;;;;;;;;;;;19.03;58.79;100468.28;1085645;54;19946;-79
2022/07/11 06:33:17;;;;;;;;;;;;;;;19.10;58.53;100461.06;1085618;54;19981;-80
2022/07/11 06:34:21;;;;;;;;;;;;;;;19.10;58.55;100466.47;1086981;39;20352;-79
2022/07/11 06:35:22;;;;;;;;;;;;;;;19.09;58.45;100461.25;1086065;54;19949;-80
2022/07/11 06:36:26;;;;;;;;;;;;;;;19.13;58.32;100466.09;1086300;54;20473;-80
2022/07/11 06:37:32;;;;;;;;;;;;;;;18.96;58.78;100467.34;1086630;54;19954;-80
2022/07/11 06:38:34;;;;;;;;;;;;;;;19.05;58.85;100463.50;1087278;54;19953;-80
2022/07/11 06:39:43;;;;;;;;;;;;;;;19.17;58.33;100467.41;1087630;54;19950;-80